createdAt,value
2022-12-20T00:01:36.755Z,7.80
2022-12-20T00:04:08.204Z,8.25
2022-12-20T00:06:36.495Z,7.85
2022-12-20T00:09:07.474Z,7.93
2022-12-20T00:11:38.354Z,7.80
2022-12-20T00:14:06.708Z,8.80
2022-12-20T00:16:36.909Z,7.82
2022-12-20T00:19:07.468Z,7.47
2022-12-20T00:21:36.384Z,8.20
2022-12-20T00:24:05.922Z,7.68
2022-12-20T00:26:36.031Z,8.25
2022-12-20T00:29:05.051Z,8.05
2022-12-20T00:31:34.062Z,7.45
2022-12-20T00:34:02.297Z,8.15
2022-12-20T00:36:31.976Z,7.72
2022-12-20T00:39:00.883Z,8.02
2022-12-20T00:41:32.352Z,8.32
2022-12-20T00:44:00.748Z,8.27
2022-12-20T00:46:28.786Z,7.18
2022-12-20T00:48:57.046Z,7.22
2022-12-20T00:51:29.026Z,7.60
2022-12-20T00:53:58.445Z,7.25
2022-12-20T00:56:26.628Z,7.20
2022-12-20T00:58:59.806Z,6.97
2022-12-20T01:01:31.784Z,6.82
2022-12-20T01:04:00.302Z,8.07
2022-12-20T01:06:28.891Z,6.80
2022-12-20T01:08:57.415Z,7.85
2022-12-20T01:11:28.472Z,7.40
2022-12-20T01:14:00.519Z,7.00
2022-12-20T01:16:36.091Z,6.65
2022-12-20T01:19:04.968Z,6.78
2022-12-20T01:21:33.167Z,6.38
2022-12-20T01:24:00.964Z,7.60
2022-12-20T01:26:30.849Z,7.20
2022-12-20T01:29:00.507Z,6.28
2022-12-20T01:31:30.594Z,7.72
2022-12-20T01:33:59.036Z,7.03
2022-12-20T01:36:30.529Z,7.05
2022-12-20T01:39:16.061Z,6.80
2022-12-20T01:41:45.422Z,6.80
2022-12-20T01:44:19.525Z,6.85
2022-12-20T01:46:49.041Z,7.05
2022-12-20T01:49:16.799Z,7.63
2022-12-20T01:51:49.647Z,7.30
2022-12-20T01:54:25.695Z,7.32
2022-12-20T01:56:59.378Z,7.25
2022-12-20T01:59:28.916Z,7.05
2022-12-20T02:02:04.231Z,6.18
2022-12-20T02:04:32.242Z,6.00
2022-12-20T02:07:01.220Z,5.75
2022-12-20T02:09:30.071Z,5.95
2022-12-20T02:12:09.412Z,5.93
2022-12-20T02:15:07.306Z,6.25
2022-12-20T02:18:13.707Z,5.70
2022-12-20T02:21:19.103Z,5.88
2022-12-20T02:24:13.613Z,5.78
2022-12-20T02:26:50.224Z,5.75
2022-12-20T02:29:31.618Z,5.93
2022-12-20T02:32:09.376Z,5.60
2022-12-20T02:34:38.915Z,5.72
2022-12-20T02:37:06.749Z,5.88
2022-12-20T02:39:37.500Z,5.00
2022-12-20T02:42:08.647Z,5.57
2022-12-20T02:45:00.507Z,5.43
2022-12-20T02:47:33.940Z,5.78
2022-12-20T02:50:04.765Z,5.30
2022-12-20T02:52:33.454Z,5.68
2022-12-20T02:55:02.711Z,5.80
2022-12-20T02:58:05.254Z,5.63
2022-12-20T03:00:41.140Z,5.55
2022-12-20T03:03:25.234Z,6.15
2022-12-20T03:05:57.042Z,6.40
2022-12-20T03:08:25.669Z,6.20
2022-12-20T03:10:54.625Z,5.95
2022-12-20T03:13:24.979Z,6.07
2022-12-20T03:15:58.635Z,6.05
2022-12-20T03:18:26.538Z,6.70
2022-12-20T03:20:55.193Z,6.20
2022-12-20T03:23:23.952Z,6.70
2022-12-20T03:25:51.855Z,5.97
2022-12-20T03:28:42.067Z,6.00
2022-12-20T03:31:12.690Z,7.05
2022-12-20T03:33:47.062Z,5.45
2022-12-20T03:36:15.065Z,6.00
2022-12-20T03:38:43.002Z,5.63
2022-12-20T03:41:11.195Z,6.43
2022-12-20T03:43:38.972Z,5.60
2022-12-20T03:46:07.116Z,5.57
2022-12-20T03:48:38.725Z,5.57
2022-12-20T03:51:06.993Z,5.28
2022-12-20T03:53:35.828Z,5.15
2022-12-20T03:56:04.138Z,4.85
2022-12-20T03:58:31.930Z,4.50
2022-12-20T04:01:01.081Z,5.07
2022-12-20T04:03:47.410Z,4.70
2022-12-20T04:06:16.463Z,4.20
2022-12-20T04:08:44.582Z,4.22
2022-12-20T04:11:16.557Z,4.20
2022-12-20T04:13:55.902Z,3.88
2022-12-20T04:16:26.383Z,4.25
2022-12-20T04:18:55.800Z,3.75
2022-12-20T04:21:27.004Z,3.65
2022-12-20T04:23:58.237Z,5.47
2022-12-20T04:26:32.647Z,10.93
2022-12-20T04:29:02.845Z,11.18
2022-12-20T04:31:30.943Z,9.70
2022-12-20T04:33:58.807Z,7.47
2022-12-20T04:36:27.264Z,6.28
2022-12-20T04:38:57.078Z,5.22
2022-12-20T04:41:24.820Z,4.80
2022-12-20T04:43:59.928Z,4.53
2022-12-20T04:46:36.207Z,3.97
2022-12-20T04:49:05.402Z,3.58
2022-12-20T04:51:35.409Z,3.30
2022-12-20T04:54:03.169Z,3.65
2022-12-20T04:56:42.935Z,3.60
2022-12-20T04:59:13.467Z,3.50
2022-12-20T05:01:43.838Z,3.58
2022-12-20T05:04:18.666Z,3.75
2022-12-20T05:06:46.592Z,3.40
2022-12-20T05:09:15.290Z,3.38
2022-12-20T05:11:43.088Z,3.47
2022-12-20T05:14:11.969Z,3.55
2022-12-20T05:16:39.774Z,3.00
2022-12-20T05:19:07.949Z,3.13
2022-12-20T05:21:58.673Z,3.25
2022-12-20T05:24:45.256Z,3.25
2022-12-20T05:27:28.155Z,3.90
2022-12-20T05:29:56.068Z,3.00
2022-12-20T05:32:25.189Z,3.15
2022-12-20T05:34:58.005Z,3.25
2022-12-20T05:37:26.019Z,2.63
2022-12-20T05:39:54.719Z,2.72
2022-12-20T05:42:24.729Z,2.72
2022-12-20T05:44:53.866Z,3.22
2022-12-20T05:47:22.910Z,2.58
2022-12-20T05:50:04.376Z,2.72
2022-12-20T05:52:37.926Z,2.55
2022-12-20T05:55:06.476Z,2.33
2022-12-20T05:57:35.265Z,3.33
2022-12-20T06:00:05.271Z,2.60
2022-12-20T06:02:44.686Z,3.08
2022-12-20T06:05:13.089Z,3.15
2022-12-20T06:07:40.884Z,3.50
2022-12-20T06:10:09.610Z,4.30
2022-12-20T06:12:46.411Z,4.35
2022-12-20T06:15:15.780Z,4.50
2022-12-20T06:17:43.828Z,3.35
2022-12-20T06:20:13.157Z,3.22
2022-12-20T06:22:43.511Z,3.40
2022-12-20T06:25:13.108Z,3.80
2022-12-20T06:27:42.430Z,3.42
2022-12-20T06:30:18.199Z,3.85
2022-12-20T06:33:04.651Z,4.97
2022-12-20T06:35:33.405Z,5.57
2022-12-20T06:38:02.419Z,4.20
2022-12-20T06:40:33.671Z,4.03
2022-12-20T06:43:02.273Z,3.65
2022-12-20T06:45:31.727Z,3.67
2022-12-20T06:48:02.815Z,4.07
2022-12-20T06:50:32.495Z,4.10
2022-12-20T06:53:00.139Z,4.07
2022-12-20T06:55:28.101Z,3.45
2022-12-20T06:57:56.486Z,3.28
2022-12-20T07:00:24.623Z,3.00
2022-12-20T07:02:52.428Z,3.35
2022-12-20T07:05:20.525Z,3.47
2022-12-20T07:07:48.225Z,2.85
2022-12-20T07:10:16.492Z,3.60
2022-12-20T07:12:48.110Z,3.85
2022-12-20T07:15:17.151Z,4.05
2022-12-20T07:17:45.465Z,3.70
2022-12-20T07:20:14.589Z,4.30
2022-12-20T07:22:43.056Z,3.97
2022-12-20T07:25:11.603Z,4.80
2022-12-20T07:27:39.837Z,4.13
2022-12-20T07:30:08.885Z,3.80
2022-12-20T07:32:36.754Z,4.63
2022-12-20T07:35:05.069Z,4.40
2022-12-20T07:37:33.029Z,4.03
2022-12-20T07:40:00.770Z,3.90
2022-12-20T07:42:35.801Z,4.30
2022-12-20T07:45:07.408Z,4.22
2022-12-20T07:47:36.049Z,4.60
2022-12-20T07:50:04.312Z,5.20
2022-12-20T07:52:33.934Z,4.20
2022-12-20T07:55:04.065Z,4.45
2022-12-20T07:57:42.175Z,4.20
2022-12-20T08:00:10.800Z,4.20
2022-12-20T08:02:54.281Z,4.70
2022-12-20T08:05:23.516Z,3.97
2022-12-20T08:07:58.702Z,4.30
2022-12-20T08:10:29.010Z,4.10
2022-12-20T08:12:58.164Z,4.60
2022-12-20T08:15:26.979Z,3.90
2022-12-20T08:17:54.672Z,4.30
2022-12-20T08:20:22.683Z,4.75
2022-12-20T08:22:50.504Z,4.90
2022-12-20T08:25:18.477Z,4.68
2022-12-20T08:27:46.276Z,5.35
2022-12-20T08:30:15.457Z,4.93
2022-12-20T08:32:43.780Z,5.13
2022-12-20T08:35:13.275Z,4.55
2022-12-20T08:37:40.935Z,5.40
2022-12-20T08:40:09.742Z,3.80
2022-12-20T08:42:37.375Z,2.80
2022-12-20T08:45:05.706Z,3.63
2022-12-20T08:47:34.035Z,4.25
2022-12-20T08:50:02.334Z,4.38
2022-12-20T08:52:31.304Z,4.13
2022-12-20T08:55:01.420Z,4.90
2022-12-20T08:57:29.963Z,4.85
2022-12-20T08:59:58.239Z,4.45
2022-12-20T09:02:26.874Z,4.25
2022-12-20T09:04:55.134Z,4.53
2022-12-20T09:07:22.972Z,4.90
2022-12-20T09:09:50.708Z,4.90
2022-12-20T09:12:18.617Z,4.90
2022-12-20T09:14:46.779Z,4.55
2022-12-20T09:17:15.416Z,4.10
2022-12-20T09:19:43.761Z,4.70
2022-12-20T09:22:11.943Z,4.65
2022-12-20T09:24:40.037Z,3.90
2022-12-20T09:27:07.818Z,4.18
2022-12-20T09:29:36.005Z,3.85
2022-12-20T09:32:04.304Z,3.63
2022-12-20T09:34:32.204Z,3.80
2022-12-20T09:37:00.245Z,4.15
2022-12-20T09:39:28.031Z,3.75
2022-12-20T09:41:58.487Z,4.25
2022-12-20T09:44:35.083Z,4.00
2022-12-20T09:47:12.851Z,3.85
2022-12-20T09:49:44.384Z,4.28
2022-12-20T09:52:18.084Z,4.10
2022-12-20T09:55:03.425Z,4.13
2022-12-20T09:57:48.383Z,3.92
2022-12-20T10:00:18.919Z,4.03
2022-12-20T10:03:08.724Z,4.22
2022-12-20T10:05:46.336Z,3.70
2022-12-20T10:08:33.200Z,4.07
2022-12-20T10:11:10.686Z,4.37
2022-12-20T10:14:02.358Z,4.60
2022-12-20T10:16:40.895Z,4.35
2022-12-20T10:19:27.279Z,6.18
2022-12-20T10:21:58.218Z,5.90
2022-12-20T10:24:30.670Z,5.80
2022-12-20T10:27:24.343Z,5.95
2022-12-20T10:29:52.886Z,5.47
2022-12-20T10:32:24.140Z,4.80
2022-12-20T10:35:15.290Z,4.75
2022-12-20T10:38:09.207Z,4.75
2022-12-20T10:43:36.853Z,5.82
2022-12-20T10:46:07.385Z,5.93
2022-12-20T10:48:43.328Z,7.32
2022-12-20T10:51:15.822Z,8.00
2022-12-20T10:53:56.971Z,8.45
2022-12-20T10:56:27.851Z,8.82
2022-12-20T10:59:03.213Z,9.00
2022-12-20T11:01:36.854Z,9.90
2022-12-20T11:04:08.345Z,9.15
2022-12-20T11:06:39.515Z,8.30
2022-12-20T11:09:32.164Z,6.65
2022-12-20T11:12:02.703Z,5.43
2022-12-20T11:14:38.872Z,4.63
2022-12-20T11:17:36.308Z,3.97
2022-12-20T11:20:13.857Z,3.30
2022-12-20T11:23:03.595Z,2.85
2022-12-20T11:25:52.370Z,2.97
2022-12-20T11:28:41.600Z,3.03
2022-12-20T11:31:29.721Z,2.90
2022-12-20T11:34:21.334Z,2.83
2022-12-20T11:37:14.427Z,2.35
2022-12-20T11:39:45.092Z,2.55
2022-12-20T11:42:25.023Z,3.33
2022-12-20T11:45:14.071Z,3.50
2022-12-20T11:48:06.393Z,4.90
2022-12-20T11:50:55.111Z,6.18
2022-12-20T11:53:49.707Z,6.40
2022-12-20T11:56:25.121Z,5.40
2022-12-20T11:59:13.778Z,5.50
2022-12-20T12:01:51.113Z,5.68
2022-12-20T12:07:15.924Z,6.05
2022-12-20T12:10:19.072Z,6.60
2022-12-20T12:12:53.445Z,7.18
2022-12-20T12:15:56.990Z,6.93
2022-12-20T12:18:29.325Z,7.07
2022-12-20T12:21:09.553Z,6.80
2022-12-20T12:23:45.073Z,6.22
2022-12-20T12:26:21.645Z,6.50
2022-12-20T12:28:58.860Z,7.25
2022-12-20T12:34:42.238Z,7.00
2022-12-20T12:37:46.727Z,6.95
2022-12-20T12:40:52.553Z,7.15
2022-12-20T12:43:42.781Z,7.28
2022-12-20T12:46:35.515Z,6.38
2022-12-20T12:49:17.907Z,6.90
2022-12-20T12:51:59.103Z,7.20
2022-12-20T12:54:30.506Z,7.15
2022-12-20T12:57:03.994Z,7.85
2022-12-20T12:59:34.913Z,6.95
2022-12-20T13:02:04.354Z,7.03
2022-12-20T13:04:54.827Z,6.57
2022-12-20T13:07:37.434Z,6.47
2022-12-20T13:10:18.496Z,5.72
2022-12-20T13:12:52.896Z,5.53
2022-12-20T13:15:20.807Z,5.18
2022-12-20T13:17:52.855Z,5.25
2022-12-20T13:20:22.641Z,4.38
2022-12-20T13:23:07.615Z,4.40
2022-12-20T13:25:43.382Z,4.43
2022-12-20T13:28:24.929Z,5.72
2022-12-20T13:31:02.111Z,9.82
2022-12-20T13:36:10.950Z,18.42
2022-12-20T13:38:51.014Z,17.08
2022-12-20T13:41:38.884Z,12.73
2022-12-20T13:44:15.907Z,11.55
2022-12-20T13:46:57.393Z,9.95
2022-12-20T13:49:34.260Z,9.65
2022-12-20T13:52:21.342Z,8.85
2022-12-20T13:54:52.668Z,6.97
2022-12-20T13:57:31.102Z,12.45
2022-12-20T14:00:07.123Z,25.88
2022-12-20T14:02:42.166Z,30.50
2022-12-20T14:05:26.883Z,26.98
2022-12-20T14:08:09.582Z,19.50
2022-12-20T14:10:37.492Z,14.73
2022-12-20T14:13:24.058Z,11.27
2022-12-20T14:15:53.837Z,6.85
2022-12-20T14:18:24.901Z,5.60
2022-12-20T14:21:00.165Z,5.40
2022-12-20T14:23:51.034Z,5.90
2022-12-20T14:26:31.202Z,4.43
2022-12-20T14:29:01.605Z,4.93
2022-12-20T14:31:35.001Z,4.75
2022-12-20T14:34:07.300Z,4.38
2022-12-20T14:36:36.196Z,3.88
2022-12-20T14:39:26.389Z,4.18
2022-12-20T14:42:00.710Z,3.92
2022-12-20T14:44:31.591Z,3.30
2022-12-20T14:47:21.342Z,3.33
2022-12-20T14:49:52.742Z,3.55
2022-12-20T14:52:35.016Z,3.40
2022-12-20T14:55:14.622Z,3.40
2022-12-20T14:57:47.264Z,3.72
2022-12-20T15:00:21.873Z,3.75
2022-12-20T15:03:00.777Z,4.78
2022-12-20T15:05:36.967Z,4.57
2022-12-20T15:08:16.860Z,4.47
2022-12-20T15:10:52.723Z,4.20
2022-12-20T15:13:23.725Z,3.70
2022-12-20T15:15:51.681Z,3.85
2022-12-20T15:18:21.757Z,4.03
2022-12-20T15:21:05.258Z,3.25
2022-12-20T15:23:34.667Z,3.78
2022-12-20T15:26:03.004Z,3.10
2022-12-20T15:28:30.913Z,3.00
2022-12-20T15:31:00.463Z,3.78
2022-12-20T15:33:32.688Z,3.97
2022-12-20T15:36:00.497Z,4.10
2022-12-20T15:38:55.283Z,3.80
2022-12-20T15:43:55.425Z,4.13
2022-12-20T15:46:23.961Z,4.10
2022-12-20T15:48:52.010Z,4.05
2022-12-20T15:51:33.046Z,5.15
2022-12-20T15:54:02.637Z,3.90
2022-12-20T15:56:30.888Z,4.03
2022-12-20T15:58:58.781Z,4.25
2022-12-20T16:01:40.423Z,4.32
2022-12-20T16:04:15.232Z,4.43
2022-12-20T16:06:44.550Z,4.07
2022-12-20T16:09:12.909Z,4.45
2022-12-20T16:11:41.492Z,4.30
2022-12-20T16:14:17.679Z,4.95
2022-12-20T16:16:47.977Z,4.40
2022-12-20T16:19:17.015Z,4.20
2022-12-20T16:21:50.125Z,4.90
2022-12-20T16:24:21.231Z,5.10
2022-12-20T16:26:49.529Z,5.10
2022-12-20T16:29:17.377Z,4.72
2022-12-20T16:31:45.292Z,6.15
2022-12-20T16:34:16.084Z,5.05
2022-12-20T16:36:44.154Z,5.28
2022-12-20T16:39:12.285Z,5.68
2022-12-20T16:41:42.336Z,5.57
2022-12-20T16:44:15.778Z,5.65
2022-12-20T16:46:44.190Z,5.63
2022-12-20T16:49:19.735Z,5.38
2022-12-20T16:51:49.495Z,5.60
2022-12-20T16:54:21.315Z,5.97
2022-12-20T16:56:55.286Z,6.40
2022-12-20T16:59:24.412Z,5.55
2022-12-20T17:01:54.818Z,6.13
2022-12-20T17:04:24.348Z,6.03
2022-12-20T17:06:52.174Z,6.20
2022-12-20T17:12:16.035Z,5.68
2022-12-20T17:14:45.326Z,5.65
2022-12-20T17:17:13.851Z,6.05
2022-12-20T17:19:41.956Z,5.47
2022-12-20T17:24:58.017Z,6.22
2022-12-20T17:27:25.869Z,5.78
2022-12-20T17:29:55.491Z,6.05
2022-12-20T17:32:27.309Z,6.53
2022-12-20T17:34:55.759Z,6.60
2022-12-20T17:37:24.918Z,7.65
2022-12-20T17:39:53.217Z,6.97
2022-12-20T17:42:25.571Z,6.63
2022-12-20T17:44:57.039Z,6.55
2022-12-20T17:47:25.044Z,5.72
2022-12-20T17:49:54.232Z,6.80
2022-12-20T17:52:21.951Z,6.38
2022-12-20T17:54:49.882Z,7.63
2022-12-20T17:57:17.700Z,7.07
2022-12-20T17:59:45.662Z,7.30
2022-12-20T18:02:25.612Z,6.32
2022-12-20T18:04:53.838Z,6.75
2022-12-20T18:07:21.853Z,5.80
2022-12-20T18:09:50.498Z,5.78
2022-12-20T18:12:18.517Z,6.40
2022-12-20T18:14:49.757Z,5.78
2022-12-20T18:17:20.388Z,6.30
2022-12-20T18:19:48.453Z,6.10
2022-12-20T18:22:16.224Z,6.03
2022-12-20T18:24:43.996Z,6.43
2022-12-20T18:27:12.279Z,6.00
2022-12-20T18:29:40.159Z,6.45
2022-12-20T18:32:08.417Z,6.32
2022-12-20T18:34:36.448Z,5.90
2022-12-20T18:37:05.824Z,6.00
2022-12-20T18:39:33.808Z,6.15
2022-12-20T18:42:01.828Z,6.13
2022-12-20T18:44:29.573Z,5.45
2022-12-20T18:46:57.388Z,6.20
2022-12-20T18:49:25.330Z,5.70
2022-12-20T18:51:53.122Z,5.20
2022-12-20T18:54:21.311Z,6.43
2022-12-20T18:56:51.435Z,6.22
2022-12-20T18:59:19.842Z,6.38
2022-12-20T19:01:47.994Z,6.20
2022-12-20T19:04:22.471Z,6.03
2022-12-20T19:06:52.375Z,5.95
2022-12-20T19:09:20.154Z,6.45
2022-12-20T19:11:53.033Z,6.20
2022-12-20T19:14:24.735Z,6.00
2022-12-20T19:16:54.985Z,5.93
2022-12-20T19:19:23.021Z,5.85
2022-12-20T19:21:50.707Z,5.45
2022-12-20T19:24:18.687Z,5.00
2022-12-20T19:26:46.528Z,5.57
2022-12-20T19:29:14.765Z,5.40
2022-12-20T19:31:42.741Z,5.15
2022-12-20T19:34:15.782Z,4.70
2022-12-20T19:36:45.607Z,6.57
2022-12-20T19:39:18.294Z,6.85
2022-12-20T19:42:07.510Z,7.45
2022-12-20T19:44:33.985Z,7.43
2022-12-20T19:47:06.366Z,7.25
2022-12-20T19:49:36.200Z,6.57
2022-12-20T19:52:06.042Z,6.43
2022-12-20T19:54:35.487Z,6.78
2022-12-20T19:57:03.764Z,6.45
2022-12-20T19:59:31.981Z,5.65
2022-12-20T20:02:00.759Z,6.07
2022-12-20T20:04:29.633Z,6.15
2022-12-20T20:06:57.422Z,10.35
2022-12-20T20:09:25.750Z,17.75
2022-12-20T20:11:53.604Z,14.00
2022-12-20T20:14:21.965Z,12.20
2022-12-20T20:16:49.951Z,10.48
2022-12-20T20:19:18.836Z,10.75
2022-12-20T20:21:49.201Z,11.25
2022-12-20T20:24:17.354Z,10.65
2022-12-20T20:26:45.067Z,10.50
2022-12-20T20:29:12.950Z,10.63
2022-12-20T20:31:41.079Z,9.85
2022-12-20T20:34:10.543Z,9.95
2022-12-20T20:36:38.550Z,9.05
2022-12-20T20:39:06.975Z,9.60
2022-12-20T20:41:34.944Z,10.80
2022-12-20T20:44:04.407Z,9.30
2022-12-20T20:46:32.972Z,8.32
2022-12-20T20:49:03.197Z,10.60
2022-12-20T20:51:31.768Z,9.25
2022-12-20T20:54:00.516Z,8.80
2022-12-20T20:56:28.290Z,8.10
2022-12-20T20:59:02.652Z,7.38
2022-12-20T21:01:35.763Z,7.28
2022-12-20T21:04:04.661Z,8.35
2022-12-20T21:06:41.117Z,7.50
2022-12-20T21:09:10.454Z,7.32
2022-12-20T21:11:39.916Z,7.53
2022-12-20T21:14:08.037Z,8.10
2022-12-20T21:16:36.985Z,7.40
2022-12-20T21:19:06.164Z,8.02
2022-12-20T21:21:34.104Z,7.38
2022-12-20T21:24:03.622Z,7.60
2022-12-20T21:26:31.823Z,7.47
2022-12-20T21:29:01.159Z,9.80
2022-12-20T21:31:29.676Z,9.93
2022-12-20T21:33:58.417Z,10.35
2022-12-20T21:36:26.516Z,11.88
2022-12-20T21:38:58.260Z,15.25
2022-12-20T21:41:29.687Z,17.42
2022-12-20T21:44:00.320Z,21.17
2022-12-20T21:46:29.791Z,18.58
2022-12-20T21:49:00.132Z,16.55
2022-12-20T21:51:29.985Z,14.10
2022-12-20T21:54:00.723Z,12.18
2022-12-20T21:56:30.945Z,13.43
2022-12-20T21:58:59.346Z,14.18
2022-12-20T22:01:28.883Z,12.75
2022-12-20T22:04:02.654Z,11.20
2022-12-20T22:06:31.774Z,10.35
2022-12-20T22:09:01.479Z,9.68
2022-12-20T22:11:29.466Z,8.93
2022-12-20T22:13:58.452Z,7.55
2022-12-20T22:16:31.127Z,8.25
2022-12-20T22:18:59.934Z,8.02
2022-12-20T22:21:57.466Z,7.35
2022-12-20T22:26:53.563Z,7.25
2022-12-20T22:29:26.239Z,7.78
2022-12-20T22:31:54.313Z,6.60
2022-12-20T22:34:22.243Z,6.43
2022-12-20T22:36:52.497Z,6.38
2022-12-20T22:39:21.276Z,6.47
2022-12-20T22:41:49.002Z,7.20
2022-12-20T22:44:16.936Z,6.90
2022-12-20T22:49:30.158Z,7.05
2022-12-20T22:52:06.781Z,6.90
2022-12-20T22:54:35.613Z,6.40
2022-12-20T22:57:03.599Z,7.00
2022-12-20T22:59:32.633Z,6.35
2022-12-20T23:02:00.962Z,6.05
2022-12-20T23:04:28.877Z,6.00
2022-12-20T23:06:58.025Z,6.20
2022-12-20T23:09:26.390Z,5.78
2022-12-20T23:12:12.633Z,5.85
2022-12-20T23:15:03.627Z,5.20
2022-12-20T23:17:33.449Z,5.25
2022-12-20T23:20:19.830Z,5.45
2022-12-20T23:22:47.623Z,6.25
2022-12-20T23:25:18.719Z,6.00
2022-12-20T23:27:48.774Z,5.32
2022-12-20T23:30:20.326Z,4.80
2022-12-20T23:32:49.131Z,5.00
2022-12-20T23:35:20.362Z,5.60
2022-12-20T23:37:49.683Z,6.35
2022-12-20T23:40:18.701Z,6.03
2022-12-20T23:42:46.733Z,5.63
2022-12-20T23:45:16.385Z,5.80
2022-12-20T23:47:44.155Z,5.75
2022-12-20T23:50:11.912Z,5.43
2022-12-20T23:52:39.880Z,5.90
2022-12-20T23:55:08.062Z,5.43
2022-12-20T23:57:35.788Z,5.75
